sensor_id;sensor_type;location;lat;lon;timestamp;P1;durP1;ratioP1;P2;durP2;ratioP2
16667;SDS011;8447;52.630;4.734;2023-09-19T00:01:27;6.47;;;1.20;;
16667;SDS011;8447;52.630;4.734;2023-09-19T00:03:56;8.93;;;1.23;;
16667;SDS011;8447;52.630;4.734;2023-09-19T00:06:23;6.00;;;1.40;;
16667;SDS011;8447;52.630;4.734;2023-09-19T00:08:51;3.83;;;1.57;;
16667;SDS011;8447;52.630;4.734;2023-09-19T00:11:17;3.60;;;0.97;;
16667;SDS011;8447;52.630;4.734;2023-09-19T00:13:43;1.67;;;1.03;;
16667;SDS011;8447;52.630;4.734;2023-09-19T00:16:10;5.67;;;1.30;;
16667;SDS011;8447;52.630;4.734;2023-09-19T00:18:37;3.17;;;0.93;;
16667;SDS011;8447;52.630;4.734;2023-09-19T00:21:04;4.53;;;0.93;;
16667;SDS011;8447;52.630;4.734;2023-09-19T00:23:32;5.07;;;1.37;;
16667;SDS011;8447;52.630;4.734;2023-09-19T00:25:58;5.40;;;1.40;;
16667;SDS011;8447;52.630;4.734;2023-09-19T00:28:25;4.80;;;1.27;;
16667;SDS011;8447;52.630;4.734;2023-09-19T00:30:51;3.47;;;0.90;;
16667;SDS011;8447;52.630;4.734;2023-09-19T00:33:19;4.73;;;1.27;;
16667;SDS011;8447;52.630;4.734;2023-09-19T00:35:49;3.03;;;0.70;;
16667;SDS011;8447;52.630;4.734;2023-09-19T00:38:17;3.63;;;1.50;;
16667;SDS011;8447;52.630;4.734;2023-09-19T00:40:46;5.63;;;1.23;;
16667;SDS011;8447;52.630;4.734;2023-09-19T00:43:13;2.00;;;0.73;;
16667;SDS011;8447;52.630;4.734;2023-09-19T00:45:42;2.53;;;0.97;;
16667;SDS011;8447;52.630;4.734;2023-09-19T00:48:09;3.03;;;0.93;;
16667;SDS011;8447;52.630;4.734;2023-09-19T00:50:35;5.57;;;1.50;;
16667;SDS011;8447;52.630;4.734;2023-09-19T00:53:02;4.63;;;0.80;;
16667;SDS011;8447;52.630;4.734;2023-09-19T00:55:34;6.27;;;1.23;;
16667;SDS011;8447;52.630;4.734;2023-09-19T00:58:02;3.27;;;1.10;;
16667;SDS011;8447;52.630;4.734;2023-09-19T01:00:31;5.53;;;1.40;;
16667;SDS011;8447;52.630;4.734;2023-09-19T01:02:59;7.13;;;1.10;;
16667;SDS011;8447;52.630;4.734;2023-09-19T01:05:26;3.77;;;1.30;;
16667;SDS011;8447;52.630;4.734;2023-09-19T01:07:52;0.90;;;0.63;;
16667;SDS011;8447;52.630;4.734;2023-09-19T01:10:19;8.57;;;2.10;;
16667;SDS011;8447;52.630;4.734;2023-09-19T01:12:50;7.37;;;1.50;;
16667;SDS011;8447;52.630;4.734;2023-09-19T01:15:21;7.63;;;1.30;;
16667;SDS011;8447;52.630;4.734;2023-09-19T01:17:53;6.10;;;1.17;;
16667;SDS011;8447;52.630;4.734;2023-09-19T01:20:35;6.27;;;1.67;;
16667;SDS011;8447;52.630;4.734;2023-09-19T01:23:06;3.73;;;0.97;;
16667;SDS011;8447;52.630;4.734;2023-09-19T01:25:50;6.93;;;1.30;;
16667;SDS011;8447;52.630;4.734;2023-09-19T01:28:27;6.97;;;1.00;;
16667;SDS011;8447;52.630;4.734;2023-09-19T01:30:57;6.53;;;1.47;;
16667;SDS011;8447;52.630;4.734;2023-09-19T01:33:25;3.93;;;1.23;;
16667;SDS011;8447;52.630;4.734;2023-09-19T01:35:52;6.87;;;1.10;;
16667;SDS011;8447;52.630;4.734;2023-09-19T01:38:23;2.63;;;0.87;;
16667;SDS011;8447;52.630;4.734;2023-09-19T01:40:51;10.83;;;1.50;;
16667;SDS011;8447;52.630;4.734;2023-09-19T01:43:22;9.20;;;1.67;;
16667;SDS011;8447;52.630;4.734;2023-09-19T01:45:51;2.43;;;0.70;;
16667;SDS011;8447;52.630;4.734;2023-09-19T01:48:23;5.10;;;1.13;;
16667;SDS011;8447;52.630;4.734;2023-09-19T01:50:55;4.63;;;0.80;;
16667;SDS011;8447;52.630;4.734;2023-09-19T01:53:26;3.40;;;1.00;;
16667;SDS011;8447;52.630;4.734;2023-09-19T01:55:53;8.87;;;1.50;;
16667;SDS011;8447;52.630;4.734;2023-09-19T01:58:21;5.50;;;0.97;;
16667;SDS011;8447;52.630;4.734;2023-09-19T02:00:50;4.77;;;1.10;;
16667;SDS011;8447;52.630;4.734;2023-09-19T02:03:17;3.07;;;0.80;;
16667;SDS011;8447;52.630;4.734;2023-09-19T02:05:49;5.77;;;0.90;;
16667;SDS011;8447;52.630;4.734;2023-09-19T02:08:16;2.37;;;0.93;;
16667;SDS011;8447;52.630;4.734;2023-09-19T02:10:43;6.87;;;1.40;;
16667;SDS011;8447;52.630;4.734;2023-09-19T02:13:14;4.83;;;0.97;;
16667;SDS011;8447;52.630;4.734;2023-09-19T02:15:40;7.77;;;1.17;;
16667;SDS011;8447;52.630;4.734;2023-09-19T02:18:09;5.20;;;1.57;;
16667;SDS011;8447;52.630;4.734;2023-09-19T02:20:36;5.97;;;0.97;;
16667;SDS011;8447;52.630;4.734;2023-09-19T02:23:04;3.03;;;1.10;;
16667;SDS011;8447;52.630;4.734;2023-09-19T02:25:31;6.03;;;1.07;;
16667;SDS011;8447;52.630;4.734;2023-09-19T02:27:57;3.83;;;1.17;;
16667;SDS011;8447;52.630;4.734;2023-09-19T02:30:28;3.83;;;1.10;;
16667;SDS011;8447;52.630;4.734;2023-09-19T02:32:54;5.73;;;1.80;;
16667;SDS011;8447;52.630;4.734;2023-09-19T02:35:20;4.53;;;1.07;;
16667;SDS011;8447;52.630;4.734;2023-09-19T02:37:47;2.60;;;0.80;;
16667;SDS011;8447;52.630;4.734;2023-09-19T02:40:15;6.93;;;1.60;;
16667;SDS011;8447;52.630;4.734;2023-09-19T02:42:45;4.20;;;1.13;;
16667;SDS011;8447;52.630;4.734;2023-09-19T02:45:14;5.53;;;1.30;;
16667;SDS011;8447;52.630;4.734;2023-09-19T02:47:40;17.20;;;1.50;;
16667;SDS011;8447;52.630;4.734;2023-09-19T02:50:07;4.93;;;1.40;;
16667;SDS011;8447;52.630;4.734;2023-09-19T02:52:35;8.13;;;1.63;;
16667;SDS011;8447;52.630;4.734;2023-09-19T02:55:02;6.37;;;1.77;;
16667;SDS011;8447;52.630;4.734;2023-09-19T02:57:32;10.67;;;1.93;;
16667;SDS011;8447;52.630;4.734;2023-09-19T02:59:59;8.47;;;2.03;;
16667;SDS011;8447;52.630;4.734;2023-09-19T03:02:27;1.53;;;1.00;;
16667;SDS011;8447;52.630;4.734;2023-09-19T03:04:53;4.73;;;1.20;;
16667;SDS011;8447;52.630;4.734;2023-09-19T03:07:21;3.47;;;1.40;;
16667;SDS011;8447;52.630;4.734;2023-09-19T03:09:48;9.47;;;1.50;;
16667;SDS011;8447;52.630;4.734;2023-09-19T03:12:14;5.57;;;1.30;;
16667;SDS011;8447;52.630;4.734;2023-09-19T03:14:42;4.00;;;1.47;;
16667;SDS011;8447;52.630;4.734;2023-09-19T03:17:09;5.70;;;1.67;;
16667;SDS011;8447;52.630;4.734;2023-09-19T03:19:35;6.47;;;1.20;;
16667;SDS011;8447;52.630;4.734;2023-09-19T03:22:02;3.10;;;1.03;;
16667;SDS011;8447;52.630;4.734;2023-09-19T03:24:32;5.47;;;1.17;;
16667;SDS011;8447;52.630;4.734;2023-09-19T03:27:01;5.97;;;2.00;;
16667;SDS011;8447;52.630;4.734;2023-09-19T03:29:28;12.43;;;1.87;;
16667;SDS011;8447;52.630;4.734;2023-09-19T03:31:56;3.53;;;1.03;;
16667;SDS011;8447;52.630;4.734;2023-09-19T03:34:23;5.50;;;1.50;;
16667;SDS011;8447;52.630;4.734;2023-09-19T03:36:49;5.17;;;1.87;;
16667;SDS011;8447;52.630;4.734;2023-09-19T03:39:15;2.37;;;0.53;;
16667;SDS011;8447;52.630;4.734;2023-09-19T03:41:42;5.10;;;1.10;;
16667;SDS011;8447;52.630;4.734;2023-09-19T03:44:08;4.50;;;1.17;;
16667;SDS011;8447;52.630;4.734;2023-09-19T03:46:35;2.60;;;0.80;;
16667;SDS011;8447;52.630;4.734;2023-09-19T03:49:03;2.73;;;0.70;;
16667;SDS011;8447;52.630;4.734;2023-09-19T03:51:29;7.53;;;1.88;;
16667;SDS011;8447;52.630;4.734;2023-09-19T03:53:56;2.70;;;0.83;;
16667;SDS011;8447;52.630;4.734;2023-09-19T03:56:22;2.23;;;0.83;;
16667;SDS011;8447;52.630;4.734;2023-09-19T03:58:49;4.23;;;0.87;;
16667;SDS011;8447;52.630;4.734;2023-09-19T04:01:15;3.60;;;1.30;;
16667;SDS011;8447;52.630;4.734;2023-09-19T04:03:43;8.37;;;1.30;;
16667;SDS011;8447;52.630;4.734;2023-09-19T04:06:14;5.40;;;1.40;;
16667;SDS011;8447;52.630;4.734;2023-09-19T04:08:41;4.78;;;1.02;;
16667;SDS011;8447;52.630;4.734;2023-09-19T04:11:08;3.53;;;0.90;;
16667;SDS011;8447;52.630;4.734;2023-09-19T04:13:34;9.53;;;1.57;;
16667;SDS011;8447;52.630;4.734;2023-09-19T04:16:01;4.23;;;1.53;;
16667;SDS011;8447;52.630;4.734;2023-09-19T04:18:27;7.60;;;1.60;;
16667;SDS011;8447;52.630;4.734;2023-09-19T04:20:56;6.23;;;1.80;;
16667;SDS011;8447;52.630;4.734;2023-09-19T04:23:23;4.70;;;1.80;;
16667;SDS011;8447;52.630;4.734;2023-09-19T04:25:50;5.50;;;1.57;;
16667;SDS011;8447;52.630;4.734;2023-09-19T04:28:16;5.33;;;1.40;;
16667;SDS011;8447;52.630;4.734;2023-09-19T04:30:43;6.50;;;1.80;;
16667;SDS011;8447;52.630;4.734;2023-09-19T04:33:10;7.90;;;1.50;;
16667;SDS011;8447;52.630;4.734;2023-09-19T04:35:39;6.23;;;1.60;;
16667;SDS011;8447;52.630;4.734;2023-09-19T04:38:07;7.53;;;1.23;;
16667;SDS011;8447;52.630;4.734;2023-09-19T04:40:35;5.20;;;1.07;;
16667;SDS011;8447;52.630;4.734;2023-09-19T04:43:04;8.57;;;2.10;;
16667;SDS011;8447;52.630;4.734;2023-09-19T04:45:32;5.47;;;0.90;;
16667;SDS011;8447;52.630;4.734;2023-09-19T04:47:58;2.57;;;0.77;;
16667;SDS011;8447;52.630;4.734;2023-09-19T04:50:25;5.43;;;1.10;;
16667;SDS011;8447;52.630;4.734;2023-09-19T04:52:53;8.33;;;1.37;;
16667;SDS011;8447;52.630;4.734;2023-09-19T04:55:19;8.77;;;1.50;;
16667;SDS011;8447;52.630;4.734;2023-09-19T04:57:47;8.07;;;1.40;;
16667;SDS011;8447;52.630;4.734;2023-09-19T05:00:14;3.20;;;1.10;;
16667;SDS011;8447;52.630;4.734;2023-09-19T05:02:42;6.43;;;1.53;;
16667;SDS011;8447;52.630;4.734;2023-09-19T05:05:08;10.43;;;1.60;;
16667;SDS011;8447;52.630;4.734;2023-09-19T05:07:36;2.83;;;1.07;;
16667;SDS011;8447;52.630;4.734;2023-09-19T05:10:02;5.67;;;1.43;;
16667;SDS011;8447;52.630;4.734;2023-09-19T05:12:30;5.93;;;1.63;;
16667;SDS011;8447;52.630;4.734;2023-09-19T05:14:58;8.17;;;1.60;;
16667;SDS011;8447;52.630;4.734;2023-09-19T05:17:24;7.63;;;1.93;;
16667;SDS011;8447;52.630;4.734;2023-09-19T05:19:50;0.93;;;0.57;;
16667;SDS011;8447;52.630;4.734;2023-09-19T05:22:17;10.77;;;2.00;;
16667;SDS011;8447;52.630;4.734;2023-09-19T05:24:44;5.30;;;1.40;;
16667;SDS011;8447;52.630;4.734;2023-09-19T05:27:12;3.80;;;1.17;;
16667;SDS011;8447;52.630;4.734;2023-09-19T05:29:38;4.10;;;0.90;;
16667;SDS011;8447;52.630;4.734;2023-09-19T05:32:06;8.97;;;1.83;;
16667;SDS011;8447;52.630;4.734;2023-09-19T05:34:33;6.30;;;2.07;;
16667;SDS011;8447;52.630;4.734;2023-09-19T05:37:00;7.03;;;1.20;;
16667;SDS011;8447;52.630;4.734;2023-09-19T05:39:26;6.70;;;1.43;;
16667;SDS011;8447;52.630;4.734;2023-09-19T05:41:53;5.20;;;1.40;;
16667;SDS011;8447;52.630;4.734;2023-09-19T05:44:20;5.73;;;1.30;;
16667;SDS011;8447;52.630;4.734;2023-09-19T05:46:46;2.90;;;0.67;;
16667;SDS011;8447;52.630;4.734;2023-09-19T05:49:14;3.27;;;1.13;;
16667;SDS011;8447;52.630;4.734;2023-09-19T05:51:41;7.97;;;1.90;;
16667;SDS011;8447;52.630;4.734;2023-09-19T05:54:07;7.53;;;1.40;;
16667;SDS011;8447;52.630;4.734;2023-09-19T05:56:34;5.53;;;1.37;;
16667;SDS011;8447;52.630;4.734;2023-09-19T05:59:01;9.10;;;2.57;;
16667;SDS011;8447;52.630;4.734;2023-09-19T06:01:28;8.77;;;1.73;;
16667;SDS011;8447;52.630;4.734;2023-09-19T06:03:56;7.53;;;1.87;;
16667;SDS011;8447;52.630;4.734;2023-09-19T06:06:23;8.93;;;1.87;;
16667;SDS011;8447;52.630;4.734;2023-09-19T06:08:50;9.43;;;1.70;;
16667;SDS011;8447;52.630;4.734;2023-09-19T06:11:17;5.50;;;1.83;;
16667;SDS011;8447;52.630;4.734;2023-09-19T06:13:46;5.87;;;1.37;;
16667;SDS011;8447;52.630;4.734;2023-09-19T06:16:13;8.60;;;1.93;;
16667;SDS011;8447;52.630;4.734;2023-09-19T06:18:39;10.40;;;1.57;;
16667;SDS011;8447;52.630;4.734;2023-09-19T06:21:06;8.97;;;1.60;;
16667;SDS011;8447;52.630;4.734;2023-09-19T06:23:34;7.23;;;1.40;;
16667;SDS011;8447;52.630;4.734;2023-09-19T06:26:00;6.50;;;1.53;;
16667;SDS011;8447;52.630;4.734;2023-09-19T06:28:26;5.87;;;1.90;;
16667;SDS011;8447;52.630;4.734;2023-09-19T06:30:53;7.73;;;1.83;;
16667;SDS011;8447;52.630;4.734;2023-09-19T06:33:20;4.77;;;1.50;;
16667;SDS011;8447;52.630;4.734;2023-09-19T06:35:46;8.60;;;2.30;;
16667;SDS011;8447;52.630;4.734;2023-09-19T06:38:13;9.83;;;1.80;;
16667;SDS011;8447;52.630;4.734;2023-09-19T06:40:42;7.27;;;1.70;;
16667;SDS011;8447;52.630;4.734;2023-09-19T06:43:09;8.13;;;1.53;;
16667;SDS011;8447;52.630;4.734;2023-09-19T06:45:36;5.50;;;1.23;;
16667;SDS011;8447;52.630;4.734;2023-09-19T06:48:02;5.60;;;1.43;;
16667;SDS011;8447;52.630;4.734;2023-09-19T06:50:30;5.40;;;1.80;;
16667;SDS011;8447;52.630;4.734;2023-09-19T06:52:58;5.97;;;1.70;;
16667;SDS011;8447;52.630;4.734;2023-09-19T06:55:24;9.40;;;1.47;;
16667;SDS011;8447;52.630;4.734;2023-09-19T06:57:54;9.40;;;1.97;;
16667;SDS011;8447;52.630;4.734;2023-09-19T07:00:20;5.53;;;1.57;;
16667;SDS011;8447;52.630;4.734;2023-09-19T07:02:54;6.70;;;1.53;;
16667;SDS011;8447;52.630;4.734;2023-09-19T07:05:20;6.60;;;1.43;;
16667;SDS011;8447;52.630;4.734;2023-09-19T07:07:47;13.00;;;2.10;;
16667;SDS011;8447;52.630;4.734;2023-09-19T07:10:13;4.47;;;1.47;;
16667;SDS011;8447;52.630;4.734;2023-09-19T07:12:40;6.97;;;1.43;;
16667;SDS011;8447;52.630;4.734;2023-09-19T07:15:08;11.70;;;1.17;;
16667;SDS011;8447;52.630;4.734;2023-09-19T07:17:35;4.43;;;1.60;;
16667;SDS011;8447;52.630;4.734;2023-09-19T07:20:01;8.50;;;1.77;;
16667;SDS011;8447;52.630;4.734;2023-09-19T07:22:32;11.63;;;1.97;;
16667;SDS011;8447;52.630;4.734;2023-09-19T07:24:59;13.07;;;1.60;;
16667;SDS011;8447;52.630;4.734;2023-09-19T07:27:25;10.17;;;2.30;;
16667;SDS011;8447;52.630;4.734;2023-09-19T07:29:51;5.97;;;1.60;;
16667;SDS011;8447;52.630;4.734;2023-09-19T07:32:19;8.53;;;1.77;;
16667;SDS011;8447;52.630;4.734;2023-09-19T07:34:45;9.23;;;1.70;;
16667;SDS011;8447;52.630;4.734;2023-09-19T07:37:12;6.50;;;2.07;;
16667;SDS011;8447;52.630;4.734;2023-09-19T07:39:41;6.43;;;1.30;;
16667;SDS011;8447;52.630;4.734;2023-09-19T07:42:08;3.50;;;1.47;;
16667;SDS011;8447;52.630;4.734;2023-09-19T07:44:36;5.57;;;1.50;;
16667;SDS011;8447;52.630;4.734;2023-09-19T07:47:03;8.90;;;2.27;;
16667;SDS011;8447;52.630;4.734;2023-09-19T07:49:31;7.27;;;2.17;;
16667;SDS011;8447;52.630;4.734;2023-09-19T07:51:57;9.63;;;2.40;;
16667;SDS011;8447;52.630;4.734;2023-09-19T07:54:24;6.90;;;1.50;;
16667;SDS011;8447;52.630;4.734;2023-09-19T07:56:50;8.93;;;1.80;;
16667;SDS011;8447;52.630;4.734;2023-09-19T07:59:16;5.23;;;1.67;;
16667;SDS011;8447;52.630;4.734;2023-09-19T08:01:43;6.70;;;1.50;;
16667;SDS011;8447;52.630;4.734;2023-09-19T08:04:09;7.27;;;1.83;;
16667;SDS011;8447;52.630;4.734;2023-09-19T08:06:37;7.73;;;1.20;;
16667;SDS011;8447;52.630;4.734;2023-09-19T08:09:04;8.93;;;2.00;;
16667;SDS011;8447;52.630;4.734;2023-09-19T08:11:32;5.63;;;2.03;;
16667;SDS011;8447;52.630;4.734;2023-09-19T08:13:59;12.40;;;1.70;;
16667;SDS011;8447;52.630;4.734;2023-09-19T08:16:25;7.43;;;2.03;;
16667;SDS011;8447;52.630;4.734;2023-09-19T08:18:52;5.93;;;1.60;;
16667;SDS011;8447;52.630;4.734;2023-09-19T08:21:20;7.40;;;1.93;;
16667;SDS011;8447;52.630;4.734;2023-09-19T08:23:47;13.37;;;1.80;;
16667;SDS011;8447;52.630;4.734;2023-09-19T08:26:14;9.37;;;1.80;;
16667;SDS011;8447;52.630;4.734;2023-09-19T08:28:40;5.83;;;1.30;;
16667;SDS011;8447;52.630;4.734;2023-09-19T08:31:07;7.43;;;2.23;;
16667;SDS011;8447;52.630;4.734;2023-09-19T08:33:34;6.30;;;1.83;;
16667;SDS011;8447;52.630;4.734;2023-09-19T08:36:01;7.60;;;2.53;;
16667;SDS011;8447;52.630;4.734;2023-09-19T08:38:30;6.83;;;1.80;;
16667;SDS011;8447;52.630;4.734;2023-09-19T08:40:59;5.87;;;1.60;;
16667;SDS011;8447;52.630;4.734;2023-09-19T08:43:26;6.87;;;1.33;;
16667;SDS011;8447;52.630;4.734;2023-09-19T08:45:54;10.27;;;2.57;;
16667;SDS011;8447;52.630;4.734;2023-09-19T08:48:23;8.43;;;1.97;;
16667;SDS011;8447;52.630;4.734;2023-09-19T08:50:54;8.07;;;1.30;;
16667;SDS011;8447;52.630;4.734;2023-09-19T08:53:26;5.10;;;1.47;;
16667;SDS011;8447;52.630;4.734;2023-09-19T08:55:53;9.10;;;1.97;;
16667;SDS011;8447;52.630;4.734;2023-09-19T08:58:22;8.50;;;1.90;;
16667;SDS011;8447;52.630;4.734;2023-09-19T09:00:52;7.13;;;2.23;;
16667;SDS011;8447;52.630;4.734;2023-09-19T09:03:19;5.97;;;1.63;;
16667;SDS011;8447;52.630;4.734;2023-09-19T09:05:46;12.17;;;1.87;;
16667;SDS011;8447;52.630;4.734;2023-09-19T09:08:15;5.53;;;1.47;;
16667;SDS011;8447;52.630;4.734;2023-09-19T09:10:42;8.03;;;1.87;;
16667;SDS011;8447;52.630;4.734;2023-09-19T09:13:10;8.37;;;1.40;;
16667;SDS011;8447;52.630;4.734;2023-09-19T09:15:40;5.00;;;1.83;;
16667;SDS011;8447;52.630;4.734;2023-09-19T09:18:09;6.07;;;1.70;;
16667;SDS011;8447;52.630;4.734;2023-09-19T09:20:36;10.00;;;2.30;;
16667;SDS011;8447;52.630;4.734;2023-09-19T09:23:02;9.07;;;1.90;;
16667;SDS011;8447;52.630;4.734;2023-09-19T09:25:49;9.23;;;2.00;;
16667;SDS011;8447;52.630;4.734;2023-09-19T09:28:20;6.70;;;2.37;;
16667;SDS011;8447;52.630;4.734;2023-09-19T09:30:48;11.50;;;2.17;;
16667;SDS011;8447;52.630;4.734;2023-09-19T09:33:15;7.87;;;2.10;;
16667;SDS011;8447;52.630;4.734;2023-09-19T09:35:51;4.90;;;1.33;;
16667;SDS011;8447;52.630;4.734;2023-09-19T09:38:19;12.53;;;2.60;;
16667;SDS011;8447;52.630;4.734;2023-09-19T09:40:46;14.80;;;2.13;;
16667;SDS011;8447;52.630;4.734;2023-09-19T09:43:24;5.20;;;1.90;;
16667;SDS011;8447;52.630;4.734;2023-09-19T09:45:56;10.00;;;2.53;;
16667;SDS011;8447;52.630;4.734;2023-09-19T09:48:55;7.03;;;1.40;;
16667;SDS011;8447;52.630;4.734;2023-09-19T09:51:39;6.83;;;1.77;;
16667;SDS011;8447;52.630;4.734;2023-09-19T09:54:10;9.17;;;1.67;;
16667;SDS011;8447;52.630;4.734;2023-09-19T09:56:51;13.80;;;2.80;;
16667;SDS011;8447;52.630;4.734;2023-09-19T09:59:17;6.50;;;1.90;;
16667;SDS011;8447;52.630;4.734;2023-09-19T10:01:50;9.47;;;2.17;;
16667;SDS011;8447;52.630;4.734;2023-09-19T10:04:26;12.33;;;2.83;;
16667;SDS011;8447;52.630;4.734;2023-09-19T10:06:54;10.47;;;2.70;;
16667;SDS011;8447;52.630;4.734;2023-09-19T10:09:20;10.70;;;2.67;;
16667;SDS011;8447;52.630;4.734;2023-09-19T10:12:00;7.83;;;2.33;;
16667;SDS011;8447;52.630;4.734;2023-09-19T10:14:29;8.73;;;1.87;;
16667;SDS011;8447;52.630;4.734;2023-09-19T10:16:58;11.07;;;2.03;;
16667;SDS011;8447;52.630;4.734;2023-09-19T10:19:29;13.87;;;3.70;;
16667;SDS011;8447;52.630;4.734;2023-09-19T10:21:59;9.33;;;2.40;;
16667;SDS011;8447;52.630;4.734;2023-09-19T10:24:25;9.60;;;2.40;;
16667;SDS011;8447;52.630;4.734;2023-09-19T10:26:52;12.47;;;2.40;;
16667;SDS011;8447;52.630;4.734;2023-09-19T10:29:19;14.90;;;3.23;;
16667;SDS011;8447;52.630;4.734;2023-09-19T10:31:47;8.70;;;2.13;;
16667;SDS011;8447;52.630;4.734;2023-09-19T10:34:17;15.67;;;2.60;;
16667;SDS011;8447;52.630;4.734;2023-09-19T10:36:44;5.57;;;1.53;;
16667;SDS011;8447;52.630;4.734;2023-09-19T10:39:12;9.67;;;2.63;;
16667;SDS011;8447;52.630;4.734;2023-09-19T10:41:43;11.40;;;2.77;;
16667;SDS011;8447;52.630;4.734;2023-09-19T11:20:55;11.67;;;2.37;;
16667;SDS011;8447;52.630;4.734;2023-09-19T11:23:47;13.83;;;2.43;;
16667;SDS011;8447;52.630;4.734;2023-09-19T11:26:39;9.13;;;2.10;;
16667;SDS011;8447;52.630;4.734;2023-09-19T11:31:50;19.03;;;3.40;;
16667;SDS011;8447;52.630;4.734;2023-09-19T11:40:06;6.03;;;1.30;;
16667;SDS011;8447;52.630;4.734;2023-09-19T11:42:41;8.80;;;1.77;;
16667;SDS011;8447;52.630;4.734;2023-09-19T11:45:07;8.87;;;1.53;;
16667;SDS011;8447;52.630;4.734;2023-09-19T11:47:33;11.27;;;1.83;;
16667;SDS011;8447;52.630;4.734;2023-09-19T11:50:01;12.53;;;1.90;;
16667;SDS011;8447;52.630;4.734;2023-09-19T11:52:30;8.53;;;1.90;;
16667;SDS011;8447;52.630;4.734;2023-09-19T11:54:59;4.13;;;1.43;;
16667;SDS011;8447;52.630;4.734;2023-09-19T11:57:28;11.67;;;1.70;;
16667;SDS011;8447;52.630;4.734;2023-09-19T11:59:56;7.80;;;2.33;;
16667;SDS011;8447;52.630;4.734;2023-09-19T12:02:27;7.27;;;2.23;;
16667;SDS011;8447;52.630;4.734;2023-09-19T12:05:00;13.13;;;2.83;;
16667;SDS011;8447;52.630;4.734;2023-09-19T12:07:27;15.00;;;3.37;;
16667;SDS011;8447;52.630;4.734;2023-09-19T12:10:02;10.90;;;2.33;;
16667;SDS011;8447;52.630;4.734;2023-09-19T12:12:30;9.53;;;2.37;;
16667;SDS011;8447;52.630;4.734;2023-09-19T12:14:58;3.87;;;1.40;;
16667;SDS011;8447;52.630;4.734;2023-09-19T12:17:34;14.27;;;2.37;;
16667;SDS011;8447;52.630;4.734;2023-09-19T12:20:01;13.43;;;2.27;;
16667;SDS011;8447;52.630;4.734;2023-09-19T12:22:40;12.93;;;3.10;;
16667;SDS011;8447;52.630;4.734;2023-09-19T12:25:08;7.93;;;2.03;;
16667;SDS011;8447;52.630;4.734;2023-09-19T12:27:42;5.43;;;1.77;;
16667;SDS011;8447;52.630;4.734;2023-09-19T12:30:12;13.90;;;3.00;;
16667;SDS011;8447;52.630;4.734;2023-09-19T12:32:39;11.53;;;2.23;;
16667;SDS011;8447;52.630;4.734;2023-09-19T12:35:07;11.47;;;2.50;;
16667;SDS011;8447;52.630;4.734;2023-09-19T12:37:36;16.13;;;3.37;;
16667;SDS011;8447;52.630;4.734;2023-09-19T12:40:03;10.80;;;2.30;;
16667;SDS011;8447;52.630;4.734;2023-09-19T12:42:40;10.77;;;2.20;;
16667;SDS011;8447;52.630;4.734;2023-09-19T12:45:08;3.93;;;1.50;;
16667;SDS011;8447;52.630;4.734;2023-09-19T12:47:35;16.42;;;2.97;;
16667;SDS011;8447;52.630;4.734;2023-09-19T12:50:08;15.97;;;2.83;;
16667;SDS011;8447;52.630;4.734;2023-09-19T12:52:40;13.93;;;3.05;;
16667;SDS011;8447;52.630;4.734;2023-09-19T12:55:06;5.73;;;1.80;;
16667;SDS011;8447;52.630;4.734;2023-09-19T12:57:34;13.00;;;2.67;;
16667;SDS011;8447;52.630;4.734;2023-09-19T13:00:01;14.20;;;3.10;;
16667;SDS011;8447;52.630;4.734;2023-09-19T13:02:29;11.43;;;3.05;;
16667;SDS011;8447;52.630;4.734;2023-09-19T13:04:55;18.52;;;3.22;;
16667;SDS011;8447;52.630;4.734;2023-09-19T13:07:41;9.97;;;3.17;;
16667;SDS011;8447;52.630;4.734;2023-09-19T13:10:12;11.17;;;2.60;;
16667;SDS011;8447;52.630;4.734;2023-09-19T13:12:41;20.70;;;3.90;;
16667;SDS011;8447;52.630;4.734;2023-09-19T13:15:09;12.80;;;3.30;;
16667;SDS011;8447;52.630;4.734;2023-09-19T13:17:46;6.20;;;1.57;;
16667;SDS011;8447;52.630;4.734;2023-09-19T13:20:20;11.67;;;2.63;;
16667;SDS011;8447;52.630;4.734;2023-09-19T13:22:49;11.87;;;3.30;;
16667;SDS011;8447;52.630;4.734;2023-09-19T13:25:19;15.67;;;3.10;;
16667;SDS011;8447;52.630;4.734;2023-09-19T13:27:46;12.27;;;2.87;;
16667;SDS011;8447;52.630;4.734;2023-09-19T13:30:13;11.97;;;2.63;;
16667;SDS011;8447;52.630;4.734;2023-09-19T13:32:40;14.50;;;3.70;;
16667;SDS011;8447;52.630;4.734;2023-09-19T13:35:10;15.30;;;3.63;;
16667;SDS011;8447;52.630;4.734;2023-09-19T13:37:38;2.90;;;1.47;;
16667;SDS011;8447;52.630;4.734;2023-09-19T13:40:06;13.10;;;3.00;;
16667;SDS011;8447;52.630;4.734;2023-09-19T13:42:33;9.50;;;2.37;;
16667;SDS011;8447;52.630;4.734;2023-09-19T13:45:01;11.77;;;2.70;;
16667;SDS011;8447;52.630;4.734;2023-09-19T13:47:29;12.73;;;3.00;;
16667;SDS011;8447;52.630;4.734;2023-09-19T13:49:55;16.90;;;3.47;;
16667;SDS011;8447;52.630;4.734;2023-09-19T13:52:23;21.13;;;3.63;;
16667;SDS011;8447;52.630;4.734;2023-09-19T13:54:53;13.13;;;3.30;;
16667;SDS011;8447;52.630;4.734;2023-09-19T13:57:21;14.10;;;4.77;;
16667;SDS011;8447;52.630;4.734;2023-09-19T13:59:48;21.60;;;4.30;;
16667;SDS011;8447;52.630;4.734;2023-09-19T14:02:14;11.53;;;3.07;;
16667;SDS011;8447;52.630;4.734;2023-09-19T14:04:43;19.77;;;2.80;;
16667;SDS011;8447;52.630;4.734;2023-09-19T14:07:10;14.57;;;2.80;;
16667;SDS011;8447;52.630;4.734;2023-09-19T14:09:38;10.80;;;2.77;;
16667;SDS011;8447;52.630;4.734;2023-09-19T14:12:04;19.23;;;4.40;;
16667;SDS011;8447;52.630;4.734;2023-09-19T14:14:31;17.90;;;3.63;;
16667;SDS011;8447;52.630;4.734;2023-09-19T14:16:58;24.47;;;4.53;;
16667;SDS011;8447;52.630;4.734;2023-09-19T14:19:25;18.03;;;3.40;;
16667;SDS011;8447;52.630;4.734;2023-09-19T14:21:52;16.97;;;3.50;;
16667;SDS011;8447;52.630;4.734;2023-09-19T14:24:20;8.13;;;2.33;;
16667;SDS011;8447;52.630;4.734;2023-09-19T14:26:48;11.30;;;2.93;;
16667;SDS011;8447;52.630;4.734;2023-09-19T14:29:15;17.40;;;4.07;;
16667;SDS011;8447;52.630;4.734;2023-09-19T14:31:42;14.30;;;3.13;;
16667;SDS011;8447;52.630;4.734;2023-09-19T14:34:09;15.20;;;3.10;;
16667;SDS011;8447;52.630;4.734;2023-09-19T14:36:35;24.17;;;4.63;;
16667;SDS011;8447;52.630;4.734;2023-09-19T14:39:03;17.77;;;3.83;;
16667;SDS011;8447;52.630;4.734;2023-09-19T14:41:30;18.50;;;4.23;;
16667;SDS011;8447;52.630;4.734;2023-09-19T14:43:58;15.83;;;3.77;;
16667;SDS011;8447;52.630;4.734;2023-09-19T14:46:24;10.73;;;2.50;;
16667;SDS011;8447;52.630;4.734;2023-09-19T14:48:51;13.07;;;2.87;;
16667;SDS011;8447;52.630;4.734;2023-09-19T14:51:17;11.17;;;2.23;;
16667;SDS011;8447;52.630;4.734;2023-09-19T14:53:44;22.03;;;4.37;;
16667;SDS011;8447;52.630;4.734;2023-09-19T14:56:11;15.17;;;3.10;;
16667;SDS011;8447;52.630;4.734;2023-09-19T14:58:38;24.67;;;4.40;;
16667;SDS011;8447;52.630;4.734;2023-09-19T15:01:09;7.03;;;2.27;;
16667;SDS011;8447;52.630;4.734;2023-09-19T15:03:35;12.03;;;3.00;;
16667;SDS011;8447;52.630;4.734;2023-09-19T15:06:02;6.40;;;2.43;;
16667;SDS011;8447;52.630;4.734;2023-09-19T15:08:29;16.40;;;4.13;;
16667;SDS011;8447;52.630;4.734;2023-09-19T15:10:56;16.03;;;3.50;;
16667;SDS011;8447;52.630;4.734;2023-09-19T15:13:23;15.13;;;3.40;;
16667;SDS011;8447;52.630;4.734;2023-09-19T15:15:53;11.97;;;2.70;;
16667;SDS011;8447;52.630;4.734;2023-09-19T15:18:25;15.50;;;3.43;;
16667;SDS011;8447;52.630;4.734;2023-09-19T15:20:52;14.10;;;3.00;;
16667;SDS011;8447;52.630;4.734;2023-09-19T15:23:19;11.90;;;2.67;;
16667;SDS011;8447;52.630;4.734;2023-09-19T15:25:47;17.00;;;3.93;;
16667;SDS011;8447;52.630;4.734;2023-09-19T15:28:13;12.73;;;3.13;;
16667;SDS011;8447;52.630;4.734;2023-09-19T15:30:40;20.90;;;3.93;;
16667;SDS011;8447;52.630;4.734;2023-09-19T15:33:06;21.33;;;4.67;;
16667;SDS011;8447;52.630;4.734;2023-09-19T15:35:34;15.20;;;3.97;;
16667;SDS011;8447;52.630;4.734;2023-09-19T15:38:01;10.23;;;1.43;;
16667;SDS011;8447;52.630;4.734;2023-09-19T15:40:27;12.83;;;3.50;;
16667;SDS011;8447;52.630;4.734;2023-09-19T15:42:55;29.23;;;5.20;;
16667;SDS011;8447;52.630;4.734;2023-09-19T15:45:22;20.00;;;4.20;;
16667;SDS011;8447;52.630;4.734;2023-09-19T15:47:50;23.30;;;4.73;;
16667;SDS011;8447;52.630;4.734;2023-09-19T15:50:16;11.00;;;2.17;;